Terminal Aerodrome Forecast
Issued by NWS

Home | Current Version | Previous Version | Graphics & Text | Print | Product List | Glossary On
Versions: 1 2 3 4 5 6 7 8 9 10 11 12 13 14 15 16 17 18 19
199
FTUS43 KTOP 251737
TAFMHK
TAF
KMHK 251737Z 2518/2618 08008KT P6SM SCT150
      TEMPO 2518/2520 -RA=

USA.gov is the U.S. government's official web portal to all federal, state and local government web resources and services.